sensor_id;sensor_type;location;lat;lon;timestamp;temperature;humidity
18297;DHT22;18066;52.106;5.534;2024-02-26T00:57:19;5.70;99.90
18297;DHT22;18066;52.106;5.534;2024-02-26T01:03:44;5.60;99.90
18297;DHT22;18066;52.106;5.534;2024-02-26T01:05:09;5.90;99.90
18297;DHT22;18066;52.106;5.534;2024-02-26T01:55:26;5.90;99.90
18297;DHT22;18066;52.106;5.534;2024-02-26T08:30:31;6.00;99.90
18297;DHT22;18066;52.106;5.534;2024-02-26T08:48:25;6.20;99.90
18297;DHT22;18066;52.106;5.534;2024-02-26T08:50:52;6.40;99.90
18297;DHT22;18066;52.106;5.534;2024-02-26T08:53:27;6.30;99.90
18297;DHT22;18066;52.106;5.534;2024-02-26T08:56:00;6.30;99.90
18297;DHT22;18066;52.106;5.534;2024-02-26T09:01:48;6.20;99.90
18297;DHT22;18066;52.106;5.534;2024-02-26T09:04:49;6.20;99.90
18297;DHT22;18066;52.106;5.534;2024-02-26T09:12:29;6.20;99.90
18297;DHT22;18066;52.106;5.534;2024-02-26T09:14:56;6.30;99.90
18297;DHT22;18066;52.106;5.534;2024-02-26T09:17:23;6.20;99.90
18297;DHT22;18066;52.106;5.534;2024-02-26T09:19:52;6.10;99.90
18297;DHT22;18066;52.106;5.534;2024-02-26T09:22:19;6.10;99.90
18297;DHT22;18066;52.106;5.534;2024-02-26T09:24:46;6.20;99.90
18297;DHT22;18066;52.106;5.534;2024-02-26T09:27:13;6.50;99.90
18297;DHT22;18066;52.106;5.534;2024-02-26T09:29:39;6.30;99.90
18297;DHT22;18066;52.106;5.534;2024-02-26T09:32:06;6.30;99.90
18297;DHT22;18066;52.106;5.534;2024-02-26T09:34:33;6.30;99.90
18297;DHT22;18066;52.106;5.534;2024-02-26T09:37:03;6.30;99.90
18297;DHT22;18066;52.106;5.534;2024-02-26T09:39:30;6.30;99.90
18297;DHT22;18066;52.106;5.534;2024-02-26T09:41:57;6.30;99.90
18297;DHT22;18066;52.106;5.534;2024-02-26T09:44:26;6.70;99.90
18297;DHT22;18066;52.106;5.534;2024-02-26T09:46:56;6.40;99.90
18297;DHT22;18066;52.106;5.534;2024-02-26T09:49:24;6.40;99.90
18297;DHT22;18066;52.106;5.534;2024-02-26T09:51:58;6.50;99.90
18297;DHT22;18066;52.106;5.534;2024-02-26T09:58:10;6.60;99.90
18297;DHT22;18066;52.106;5.534;2024-02-26T10:00:53;6.80;99.90
18297;DHT22;18066;52.106;5.534;2024-02-26T10:03:27;6.90;99.90
18297;DHT22;18066;52.106;5.534;2024-02-26T10:05:55;7.00;99.90
18297;DHT22;18066;52.106;5.534;2024-02-26T10:08:24;6.60;99.90
18297;DHT22;18066;52.106;5.534;2024-02-26T10:10:54;6.70;99.90
18297;DHT22;18066;52.106;5.534;2024-02-26T10:13:23;6.60;99.90
18297;DHT22;18066;52.106;5.534;2024-02-26T10:15:51;6.60;99.90
18297;DHT22;18066;52.106;5.534;2024-02-26T10:18:18;6.50;99.90
18297;DHT22;18066;52.106;5.534;2024-02-26T10:20:59;6.50;99.90
18297;DHT22;18066;52.106;5.534;2024-02-26T10:23:25;6.60;99.90
18297;DHT22;18066;52.106;5.534;2024-02-26T10:25:53;6.90;99.90
18297;DHT22;18066;52.106;5.534;2024-02-26T10:28:27;6.60;99.90
18297;DHT22;18066;52.106;5.534;2024-02-26T10:30:56;6.60;99.90
18297;DHT22;18066;52.106;5.534;2024-02-26T10:33:23;6.50;99.90
18297;DHT22;18066;52.106;5.534;2024-02-26T10:35:51;6.70;99.90
18297;DHT22;18066;52.106;5.534;2024-02-26T10:38:20;6.80;99.90
18297;DHT22;18066;52.106;5.534;2024-02-26T10:40:49;7.10;99.90
18297;DHT22;18066;52.106;5.534;2024-02-26T10:43:17;6.70;99.90
18297;DHT22;18066;52.106;5.534;2024-02-26T10:45:46;6.40;99.90
18297;DHT22;18066;52.106;5.534;2024-02-26T10:48:14;7.20;99.90
18297;DHT22;18066;52.106;5.534;2024-02-26T10:50:42;6.80;99.90
18297;DHT22;18066;52.106;5.534;2024-02-26T10:53:17;7.10;99.90
18297;DHT22;18066;52.106;5.534;2024-02-26T10:55:52;6.80;99.90
18297;DHT22;18066;52.106;5.534;2024-02-26T10:58:45;6.90;99.90
18297;DHT22;18066;52.106;5.534;2024-02-26T11:01:18;7.30;99.90
18297;DHT22;18066;52.106;5.534;2024-02-26T11:03:48;6.90;99.90
18297;DHT22;18066;52.106;5.534;2024-02-26T11:06:17;7.20;99.90
18297;DHT22;18066;52.106;5.534;2024-02-26T11:08:48;7.30;99.90
18297;DHT22;18066;52.106;5.534;2024-02-26T11:11:15;7.20;99.90
18297;DHT22;18066;52.106;5.534;2024-02-26T11:13:46;7.40;99.90
18297;DHT22;18066;52.106;5.534;2024-02-26T11:16:18;7.30;99.90
18297;DHT22;18066;52.106;5.534;2024-02-26T11:18:46;7.40;99.90
18297;DHT22;18066;52.106;5.534;2024-02-26T11:21:16;7.40;99.90
18297;DHT22;18066;52.106;5.534;2024-02-26T11:23:44;7.40;99.90
18297;DHT22;18066;52.106;5.534;2024-02-26T11:26:12;7.40;99.90
18297;DHT22;18066;52.106;5.534;2024-02-26T11:28:44;6.90;99.90
18297;DHT22;18066;52.106;5.534;2024-02-26T11:31:12;7.10;99.90
18297;DHT22;18066;52.106;5.534;2024-02-26T11:33:41;6.90;99.90
18297;DHT22;18066;52.106;5.534;2024-02-26T11:36:09;7.00;99.90
18297;DHT22;18066;52.106;5.534;2024-02-26T11:38:36;7.00;99.90
18297;DHT22;18066;52.106;5.534;2024-02-26T11:45:13;6.90;99.90
18297;DHT22;18066;52.106;5.534;2024-02-26T12:23:43;7.10;99.90
18297;DHT22;18066;52.106;5.534;2024-02-26T12:26:28;6.90;99.90
18297;DHT22;18066;52.106;5.534;2024-02-26T12:29:11;6.90;99.90
18297;DHT22;18066;52.106;5.534;2024-02-26T12:32:25;7.10;99.90
18297;DHT22;18066;52.106;5.534;2024-02-26T12:35:08;6.80;99.90
18297;DHT22;18066;52.106;5.534;2024-02-26T12:53:14;7.00;99.90
18297;DHT22;18066;52.106;5.534;2024-02-26T17:28:57;5.90;99.90
18297;DHT22;18066;52.106;5.534;2024-02-26T17:44:21;6.30;99.90
18297;DHT22;18066;52.106;5.534;2024-02-26T17:47:14;5.80;99.90
18297;DHT22;18066;52.106;5.534;2024-02-26T17:49:54;6.10;99.90
18297;DHT22;18066;52.106;5.534;2024-02-26T17:52:22;5.90;99.90
18297;DHT22;18066;52.106;5.534;2024-02-26T17:55:27;5.70;99.90
18297;DHT22;18066;52.106;5.534;2024-02-26T18:56:53;5.30;99.90
18297;DHT22;18066;52.106;5.534;2024-02-26T19:02:56;5.70;99.90
18297;DHT22;18066;52.106;5.534;2024-02-26T19:05:26;5.40;99.90
18297;DHT22;18066;52.106;5.534;2024-02-26T19:07:58;5.40;99.90
18297;DHT22;18066;52.106;5.534;2024-02-26T19:10:28;5.70;99.90
18297;DHT22;18066;52.106;5.534;2024-02-26T19:12:57;5.30;99.90
18297;DHT22;18066;52.106;5.534;2024-02-26T19:15:27;5.70;99.90
18297;DHT22;18066;52.106;5.534;2024-02-26T19:17:56;5.20;99.90
